Beaconsfield, Canada
Current Conditions -  °F | °C
As of 9:28 PM on Saturday 20 Dec 2014 (Local Time) from CYUL Reporting Station
Snow Showers Snow Showers  
Wind Chill: -2°   Ceiling: 24000
Heat Index: 10°   Visibility: 12mi
Dew Point:   Wind: 8mph
Humidity: 85%   Direction: 20°NNE
Pressure: 30.36"   Gusts: NA
Location:  45.43°N, 73.83°W
Report Text: CYUL 210228Z 02007KT 12SM -SHSN SCT006 BKN240 M12/M14 A3036 RMK SF3CI4 SLP285
Loading
Personal Weather Stations






























Interactive Weather Map New forecast layout! Learn more

10-Day Weather Forecast

Advertisements
Track Severe Weather on mobile